createdAt,value
2023-12-20T00:02:13.091Z,25.10
2023-12-20T00:04:40.021Z,25.10
2023-12-20T00:07:06.856Z,23.90
2023-12-20T00:09:41.733Z,21.60
2023-12-20T00:12:13.641Z,20.83
2023-12-20T00:14:40.443Z,21.88
2023-12-20T00:17:14.964Z,21.48
2023-12-20T00:19:41.971Z,20.95
2023-12-20T00:22:19.743Z,18.83
2023-12-20T00:24:51.521Z,19.85
2023-12-20T00:27:22.545Z,20.00
2023-12-20T00:29:51.420Z,18.93
2023-12-20T00:32:21.182Z,18.65
2023-12-20T00:34:48.083Z,18.58
2023-12-20T00:37:15.452Z,20.92
2023-12-20T00:39:48.714Z,18.55
2023-12-20T00:42:16.199Z,20.20
2023-12-20T00:44:42.847Z,18.85
2023-12-20T00:47:16.927Z,19.50
2023-12-20T00:49:50.600Z,18.63
2023-12-20T00:52:25.407Z,18.73
2023-12-20T00:54:52.558Z,18.60
2023-12-20T00:57:19.641Z,17.73
2023-12-20T00:59:46.430Z,17.50
2023-12-20T01:02:15.623Z,16.45
2023-12-20T01:04:42.589Z,17.40
2023-12-20T01:07:12.553Z,17.13
2023-12-20T01:09:39.332Z,18.13
2023-12-20T01:12:10.266Z,16.48
2023-12-20T01:14:46.219Z,17.30
2023-12-20T01:17:13.714Z,17.58
2023-12-20T01:19:40.443Z,17.70
2023-12-20T01:22:07.156Z,15.23
2023-12-20T01:24:41.705Z,15.85
2023-12-20T01:27:19.238Z,15.23
2023-12-20T01:29:46.002Z,15.85
2023-12-20T01:32:12.835Z,14.85
2023-12-20T01:34:39.743Z,15.45
2023-12-20T01:37:06.605Z,16.40
2023-12-20T01:39:41.235Z,16.23
2023-12-20T01:42:10.497Z,16.40
2023-12-20T01:44:37.358Z,17.23
2023-12-20T01:47:04.456Z,15.65
2023-12-20T01:49:31.850Z,15.75
2023-12-20T01:51:59.326Z,16.50
2023-12-20T01:54:26.462Z,16.30
2023-12-20T01:56:53.319Z,16.83
2023-12-20T01:59:21.967Z,15.45
2023-12-20T02:01:48.945Z,17.05
2023-12-20T02:04:16.764Z,15.85
2023-12-20T02:06:43.876Z,14.77
2023-12-20T02:09:10.888Z,13.85
2023-12-20T02:11:37.802Z,14.45
2023-12-20T02:14:06.605Z,14.90
2023-12-20T02:16:33.581Z,13.68
2023-12-20T02:19:00.508Z,13.73
2023-12-20T02:21:33.949Z,15.85
2023-12-20T02:24:00.676Z,15.05
2023-12-20T02:26:27.958Z,15.10
2023-12-20T02:28:55.631Z,13.85
2023-12-20T02:31:26.702Z,16.00
2023-12-20T02:33:53.514Z,15.60
2023-12-20T02:36:21.951Z,14.02
2023-12-20T02:38:49.241Z,13.48
2023-12-20T02:41:21.796Z,14.82
2023-12-20T02:43:48.936Z,14.57
2023-12-20T02:46:18.388Z,13.82
2023-12-20T02:48:45.211Z,12.43
2023-12-20T02:51:12.068Z,12.95
2023-12-20T02:53:38.846Z,12.32
2023-12-20T02:56:05.892Z,13.52
2023-12-20T02:58:35.770Z,13.75
2023-12-20T03:01:02.617Z,15.82
2023-12-20T03:03:29.443Z,14.77
2023-12-20T03:05:56.120Z,15.45
2023-12-20T03:08:22.964Z,16.17
2023-12-20T03:10:49.916Z,16.52
2023-12-20T03:13:16.773Z,15.48
2023-12-20T03:15:43.773Z,16.38
2023-12-20T03:18:10.547Z,16.05
2023-12-20T03:20:37.299Z,16.92
2023-12-20T03:23:04.437Z,15.65
2023-12-20T03:25:31.350Z,15.85
2023-12-20T03:27:58.302Z,15.88
2023-12-20T03:30:25.076Z,15.63
2023-12-20T03:32:51.785Z,15.82
2023-12-20T03:35:18.571Z,15.45
2023-12-20T03:37:45.659Z,13.77
2023-12-20T03:40:14.897Z,13.40
2023-12-20T03:42:42.074Z,13.23
2023-12-20T03:45:09.669Z,11.48
2023-12-20T03:47:37.930Z,12.10
2023-12-20T03:50:05.362Z,12.27
2023-12-20T03:52:32.200Z,12.48
2023-12-20T03:54:58.933Z,12.25
2023-12-20T03:57:25.786Z,13.00
2023-12-20T03:59:52.490Z,11.88
2023-12-20T04:02:19.316Z,11.82
2023-12-20T04:04:46.303Z,11.48
2023-12-20T04:07:13.352Z,11.48
2023-12-20T04:09:44.434Z,12.13
2023-12-20T04:12:13.759Z,10.52
2023-12-20T04:14:47.517Z,11.98
2023-12-20T04:17:17.111Z,10.68
2023-12-20T04:19:46.734Z,11.43
2023-12-20T04:22:13.472Z,12.30
2023-12-20T04:24:40.214Z,11.55
2023-12-20T04:27:07.064Z,11.93
2023-12-20T04:29:33.795Z,11.73
2023-12-20T04:32:00.656Z,11.85
2023-12-20T04:34:27.941Z,11.93
2023-12-20T04:36:55.196Z,11.77
2023-12-20T04:39:22.074Z,11.23
2023-12-20T04:41:48.957Z,12.18
2023-12-20T04:44:19.205Z,12.40
2023-12-20T04:49:15.966Z,11.38
2023-12-20T04:51:42.694Z,12.27
2023-12-20T04:54:09.547Z,13.02
2023-12-20T04:56:36.399Z,13.27
2023-12-20T04:59:07.021Z,12.93
2023-12-20T05:01:33.999Z,11.57
2023-12-20T05:04:01.190Z,11.82
2023-12-20T05:06:28.023Z,12.20
2023-12-20T05:08:54.921Z,10.30
2023-12-20T05:11:24.873Z,11.07
2023-12-20T05:13:52.801Z,10.82
2023-12-20T05:16:20.357Z,11.00
2023-12-20T05:18:49.289Z,10.50
2023-12-20T05:21:16.074Z,10.43
2023-12-20T05:23:46.270Z,10.63
2023-12-20T05:26:12.963Z,11.05
2023-12-20T05:28:39.683Z,272.15
2023-12-20T05:31:07.058Z,27.80
2023-12-20T05:33:34.303Z,26.08
2023-12-20T05:36:01.326Z,15.05
2023-12-20T05:38:29.785Z,12.80
2023-12-20T05:40:57.825Z,11.85
2023-12-20T05:43:24.956Z,11.35
2023-12-20T05:46:00.256Z,11.00
2023-12-20T05:48:28.895Z,11.23
2023-12-20T05:50:56.578Z,12.82
2023-12-20T05:53:23.814Z,13.73
2023-12-20T05:55:50.618Z,14.18
2023-12-20T05:58:17.573Z,12.07
2023-12-20T06:00:44.616Z,15.68
2023-12-20T06:03:11.635Z,15.35
2023-12-20T06:05:38.382Z,14.70
2023-12-20T06:08:07.634Z,12.15
2023-12-20T06:10:34.449Z,15.10
2023-12-20T06:13:02.237Z,15.50
2023-12-20T06:15:29.227Z,17.75
2023-12-20T06:17:56.179Z,15.15
2023-12-20T06:20:23.148Z,18.25
2023-12-20T06:22:49.956Z,17.40
2023-12-20T06:25:16.834Z,13.60
2023-12-20T06:27:43.954Z,14.95
2023-12-20T06:30:13.417Z,13.23
2023-12-20T06:32:40.800Z,15.32
2023-12-20T06:35:08.107Z,15.13
2023-12-20T06:37:37.796Z,16.67
2023-12-20T06:40:13.972Z,15.70
2023-12-20T06:42:54.473Z,16.10
2023-12-20T06:45:35.577Z,15.20
2023-12-20T06:48:06.912Z,14.63
2023-12-20T06:50:34.052Z,14.70
2023-12-20T06:53:00.874Z,14.95
2023-12-20T06:55:27.593Z,14.60
2023-12-20T06:57:54.355Z,15.10
2023-12-20T07:00:21.973Z,14.02
2023-12-20T07:02:48.894Z,14.00
2023-12-20T07:05:18.609Z,15.80
2023-12-20T07:07:45.815Z,16.40
2023-12-20T07:10:12.868Z,15.15
2023-12-20T07:12:39.746Z,14.00
2023-12-20T07:15:07.616Z,16.13
2023-12-20T07:17:35.239Z,14.57
2023-12-20T07:20:05.488Z,14.02
2023-12-20T07:22:33.278Z,16.20
2023-12-20T07:25:01.780Z,16.80
2023-12-20T07:27:29.170Z,15.30
2023-12-20T07:29:55.951Z,17.27
2023-12-20T07:32:22.833Z,14.63
2023-12-20T07:34:49.823Z,15.38
2023-12-20T07:37:18.435Z,15.38
2023-12-20T07:39:48.127Z,15.82
2023-12-20T07:42:15.036Z,15.65
2023-12-20T07:44:43.263Z,15.15
2023-12-20T07:47:10.127Z,17.00
2023-12-20T07:49:37.250Z,17.05
2023-12-20T07:52:05.055Z,17.88
2023-12-20T07:54:31.926Z,17.42
2023-12-20T07:57:01.154Z,16.65
2023-12-20T07:59:32.863Z,18.23
2023-12-20T08:04:28.708Z,16.92
2023-12-20T08:06:55.976Z,16.10
2023-12-20T08:09:23.267Z,18.63
2023-12-20T08:11:50.563Z,19.23
2023-12-20T08:14:19.934Z,17.60
2023-12-20T08:16:46.874Z,16.58
2023-12-20T08:19:15.177Z,16.85
2023-12-20T08:21:42.174Z,16.42
2023-12-20T08:24:09.328Z,15.35
2023-12-20T08:26:36.176Z,16.25
2023-12-20T08:29:05.538Z,17.40
2023-12-20T08:31:35.024Z,17.05
2023-12-20T08:34:02.128Z,16.88
2023-12-20T08:36:29.280Z,18.38
2023-12-20T08:39:05.697Z,16.80
2023-12-20T08:41:32.586Z,16.08
2023-12-20T08:43:59.359Z,16.45
2023-12-20T08:46:27.176Z,16.92
2023-12-20T08:48:58.993Z,15.95
2023-12-20T08:53:54.051Z,16.35
2023-12-20T08:56:21.592Z,16.35
2023-12-20T08:58:48.425Z,16.63
2023-12-20T09:01:16.404Z,16.52
2023-12-20T09:03:43.771Z,16.85
2023-12-20T09:06:10.795Z,18.17
2023-12-20T09:08:41.010Z,19.17
2023-12-20T09:11:08.359Z,18.77
2023-12-20T09:13:35.792Z,24.58
2023-12-20T09:16:04.630Z,26.95
2023-12-20T09:18:32.683Z,30.88
2023-12-20T09:21:00.011Z,33.63
2023-12-20T09:23:29.320Z,37.03
2023-12-20T09:25:58.024Z,37.28
2023-12-20T09:28:27.908Z,36.53
2023-12-20T09:30:54.841Z,38.67
2023-12-20T09:33:29.995Z,37.45
2023-12-20T09:35:57.261Z,39.53
2023-12-20T09:38:24.041Z,36.75
2023-12-20T09:40:51.774Z,36.40
2023-12-20T09:43:24.659Z,34.17
2023-12-20T09:45:55.124Z,32.03
2023-12-20T09:48:24.381Z,32.08
2023-12-20T09:50:53.748Z,31.33
2023-12-20T09:53:24.998Z,30.52
2023-12-20T09:55:52.445Z,30.10
2023-12-20T09:58:19.596Z,29.45
2023-12-20T10:00:49.650Z,29.38
2023-12-20T10:03:17.195Z,28.17
2023-12-20T10:05:46.131Z,28.50
2023-12-20T10:08:13.225Z,27.48
2023-12-20T10:10:47.893Z,27.77
2023-12-20T10:13:16.595Z,26.98
2023-12-20T10:15:44.026Z,28.13
2023-12-20T10:18:13.549Z,28.40
2023-12-20T10:20:42.186Z,26.73
2023-12-20T10:23:10.428Z,26.98
2023-12-20T10:25:37.328Z,27.30
2023-12-20T10:28:15.698Z,27.20
2023-12-20T10:30:43.815Z,27.40
2023-12-20T10:33:11.691Z,27.40
2023-12-20T10:35:42.635Z,28.50
2023-12-20T10:38:14.533Z,29.50
2023-12-20T10:40:42.358Z,26.58
2023-12-20T10:43:10.294Z,28.83
2023-12-20T10:45:37.473Z,28.23
2023-12-20T10:48:05.138Z,27.63
2023-12-20T10:50:32.928Z,26.75
2023-12-20T10:53:00.892Z,28.52
2023-12-20T10:55:30.974Z,28.20
2023-12-20T10:58:11.547Z,29.15
2023-12-20T11:00:42.827Z,28.20
2023-12-20T11:03:14.331Z,30.80
2023-12-20T11:06:04.259Z,26.17
2023-12-20T11:08:40.127Z,29.10
2023-12-20T11:11:31.261Z,26.88
2023-12-20T11:14:12.550Z,27.83
2023-12-20T11:16:45.558Z,28.73
2023-12-20T11:19:27.664Z,30.00
2023-12-20T11:21:54.715Z,28.67
2023-12-20T11:24:25.779Z,29.88
2023-12-20T11:26:57.828Z,29.73
2023-12-20T11:32:04.936Z,29.85
2023-12-20T11:34:34.522Z,31.88
2023-12-20T11:37:03.597Z,31.17
2023-12-20T11:39:33.949Z,29.55
2023-12-20T11:42:07.688Z,31.50
2023-12-20T11:44:34.768Z,28.42
2023-12-20T11:47:01.743Z,30.02
2023-12-20T11:49:30.673Z,33.35
2023-12-20T11:51:58.121Z,34.35
2023-12-20T11:54:24.882Z,38.10
2023-12-20T11:56:55.381Z,38.03
2023-12-20T11:59:23.978Z,39.67
2023-12-20T12:01:52.904Z,38.88
2023-12-20T12:04:22.097Z,39.15
2023-12-20T12:06:49.135Z,39.72
2023-12-20T12:09:16.498Z,38.97
2023-12-20T12:11:44.351Z,38.70
2023-12-20T12:14:12.642Z,37.65
2023-12-20T12:16:44.455Z,39.17
2023-12-20T12:19:24.818Z,40.72
2023-12-20T12:21:54.662Z,42.38
2023-12-20T12:24:23.325Z,44.40
2023-12-20T12:26:53.408Z,44.83
2023-12-20T12:29:20.352Z,46.30
2023-12-20T12:31:51.559Z,46.47
2023-12-20T12:34:22.148Z,46.13
2023-12-20T12:36:50.193Z,47.50
2023-12-20T12:39:19.849Z,46.17
2023-12-20T12:41:46.713Z,46.22
2023-12-20T12:44:17.857Z,48.83
2023-12-20T12:46:47.395Z,46.63
2023-12-20T12:49:15.137Z,46.72
2023-12-20T12:51:42.439Z,44.67
2023-12-20T12:54:10.117Z,44.50
2023-12-20T12:56:38.198Z,41.38
2023-12-20T12:59:05.658Z,41.83
2023-12-20T13:01:33.015Z,39.95
2023-12-20T13:04:00.055Z,40.97
2023-12-20T13:06:34.651Z,42.80
2023-12-20T13:09:06.156Z,38.38
2023-12-20T13:11:33.915Z,40.40
2023-12-20T13:14:00.994Z,42.80
2023-12-20T13:16:28.299Z,42.03
2023-12-20T13:18:59.136Z,40.13
2023-12-20T13:21:28.089Z,40.75
2023-12-20T13:23:55.629Z,40.97
2023-12-20T13:26:22.696Z,43.22
2023-12-20T13:28:49.533Z,41.17
2023-12-20T13:31:16.541Z,41.90
2023-12-20T13:33:43.428Z,39.58
2023-12-20T13:36:18.932Z,38.08
2023-12-20T13:38:45.924Z,38.55
2023-12-20T13:41:13.902Z,36.65
2023-12-20T13:43:42.719Z,36.88
2023-12-20T13:46:10.869Z,39.30
2023-12-20T13:48:39.279Z,39.80
2023-12-20T13:51:07.167Z,41.92
2023-12-20T13:53:34.082Z,42.30
2023-12-20T13:56:01.286Z,40.65
2023-12-20T13:58:28.190Z,43.20
2023-12-20T14:00:58.060Z,42.97
2023-12-20T14:03:27.329Z,43.35
2023-12-20T14:05:54.263Z,41.35
2023-12-20T14:08:25.365Z,41.78
2023-12-20T14:10:52.169Z,39.87
2023-12-20T14:13:19.378Z,41.15
2023-12-20T14:15:46.093Z,42.35
2023-12-20T14:18:14.087Z,40.58
2023-12-20T14:20:43.220Z,42.40
2023-12-20T14:23:13.404Z,42.20
2023-12-20T14:25:52.083Z,40.40
2023-12-20T14:28:20.844Z,40.25
2023-12-20T14:30:47.790Z,40.60
2023-12-20T14:33:18.141Z,40.33
2023-12-20T14:35:49.495Z,40.78
2023-12-20T14:38:16.645Z,41.58
2023-12-20T14:40:43.760Z,41.15
2023-12-20T14:43:10.665Z,43.85
2023-12-20T14:45:50.235Z,41.33
2023-12-20T14:48:18.367Z,42.28
2023-12-20T14:50:49.733Z,39.95
2023-12-20T14:53:20.680Z,43.83
2023-12-20T14:55:50.100Z,41.65
2023-12-20T14:58:16.891Z,39.25
2023-12-20T15:00:49.027Z,40.72
2023-12-20T15:03:17.891Z,40.17
2023-12-20T15:05:49.207Z,39.20
2023-12-20T15:08:24.667Z,40.33
2023-12-20T15:10:51.870Z,40.42
2023-12-20T15:13:19.039Z,41.00
2023-12-20T15:15:47.427Z,40.83
2023-12-20T15:18:15.195Z,39.65
2023-12-20T15:20:45.849Z,41.10
2023-12-20T15:23:12.545Z,41.28
2023-12-20T15:25:40.130Z,43.38
2023-12-20T15:28:07.374Z,41.92
2023-12-20T15:30:34.561Z,40.42
2023-12-20T15:33:05.615Z,43.92
2023-12-20T15:35:35.371Z,45.38
2023-12-20T15:38:03.095Z,42.67
2023-12-20T15:40:32.318Z,43.00
2023-12-20T15:43:03.543Z,44.55
2023-12-20T15:45:31.541Z,46.17
2023-12-20T15:47:59.626Z,44.00
2023-12-20T15:50:27.987Z,44.78
2023-12-20T15:52:54.880Z,44.97
2023-12-20T15:55:22.237Z,45.42
2023-12-20T15:57:54.476Z,47.03
2023-12-20T16:00:23.280Z,42.45
2023-12-20T16:02:51.310Z,47.00
2023-12-20T16:05:23.582Z,46.95
2023-12-20T16:07:55.537Z,47.25
2023-12-20T16:10:22.849Z,47.92
2023-12-20T16:12:50.520Z,49.75
2023-12-20T16:15:17.526Z,46.55
2023-12-20T16:17:49.890Z,48.50
2023-12-20T16:20:17.142Z,44.85
2023-12-20T16:22:47.465Z,46.65
2023-12-20T16:25:22.957Z,46.95
2023-12-20T16:27:50.197Z,50.05
2023-12-20T16:30:20.351Z,50.42
2023-12-20T16:32:52.956Z,50.00
2023-12-20T16:35:21.178Z,47.60
2023-12-20T16:37:48.052Z,50.33
2023-12-20T16:40:24.677Z,47.67
2023-12-20T16:43:04.588Z,53.45
2023-12-20T16:45:31.687Z,50.50
2023-12-20T16:48:01.608Z,54.40
2023-12-20T16:50:31.124Z,53.65
2023-12-20T16:52:58.285Z,52.58
2023-12-20T16:55:25.446Z,52.30
2023-12-20T16:57:53.083Z,53.33
2023-12-20T17:02:58.354Z,53.97
2023-12-20T17:05:26.415Z,54.80
2023-12-20T17:07:53.204Z,55.25
2023-12-20T17:10:20.193Z,57.35
2023-12-20T17:12:47.048Z,53.40
2023-12-20T17:15:13.860Z,54.03
2023-12-20T17:17:40.658Z,53.47
2023-12-20T17:20:09.075Z,55.15
2023-12-20T17:22:35.826Z,54.38
2023-12-20T17:25:02.690Z,56.20
2023-12-20T17:27:32.149Z,58.78
2023-12-20T17:30:03.985Z,54.58
2023-12-20T17:32:31.012Z,54.40
2023-12-20T17:35:00.966Z,55.15
2023-12-20T17:37:30.206Z,53.80
2023-12-20T17:39:57.014Z,54.15
2023-12-20T17:42:24.064Z,58.05
2023-12-20T17:44:53.821Z,57.50
2023-12-20T17:47:20.650Z,57.22
2023-12-20T17:49:47.554Z,57.83
2023-12-20T17:52:14.323Z,57.22
2023-12-20T17:54:42.417Z,58.33
2023-12-20T17:57:09.302Z,56.17
2023-12-20T17:59:55.912Z,56.15
2023-12-20T18:02:23.527Z,57.42
2023-12-20T18:04:50.344Z,56.13
2023-12-20T18:07:18.932Z,57.10
2023-12-20T18:09:45.757Z,55.70
2023-12-20T18:12:15.588Z,57.80
2023-12-20T18:14:43.448Z,58.42
2023-12-20T18:17:10.392Z,56.13
2023-12-20T18:19:37.214Z,59.08
2023-12-20T18:22:04.490Z,56.65
2023-12-20T18:24:31.249Z,56.45
2023-12-20T18:26:59.646Z,59.85
2023-12-20T18:29:32.413Z,57.80
2023-12-20T18:31:59.284Z,57.78
2023-12-20T18:34:27.724Z,61.40
2023-12-20T18:36:54.948Z,60.78
2023-12-20T18:39:21.744Z,62.50
2023-12-20T18:41:51.897Z,62.35
2023-12-20T18:44:19.699Z,60.50
2023-12-20T18:46:46.475Z,60.05
2023-12-20T18:49:13.587Z,59.50
2023-12-20T18:51:44.139Z,61.58
2023-12-20T18:54:10.888Z,60.47
2023-12-20T18:56:46.706Z,61.22
2023-12-20T18:59:14.280Z,58.05
2023-12-20T19:01:41.724Z,57.50
2023-12-20T19:04:11.040Z,59.85
2023-12-20T19:06:38.300Z,58.92
2023-12-20T19:09:05.038Z,59.90
2023-12-20T19:11:35.463Z,63.10
2023-12-20T19:14:12.932Z,59.10
2023-12-20T19:16:52.221Z,61.70
2023-12-20T19:19:21.547Z,58.70
2023-12-20T19:21:50.391Z,61.03
2023-12-20T19:24:17.097Z,58.58
2023-12-20T19:26:43.824Z,61.75
2023-12-20T19:29:10.693Z,60.60
2023-12-20T19:31:44.744Z,58.38
2023-12-20T19:34:14.652Z,61.45
2023-12-20T19:36:41.536Z,61.95
2023-12-20T19:39:21.920Z,62.80
2023-12-20T19:41:49.604Z,60.97
2023-12-20T19:44:18.094Z,60.65
2023-12-20T19:46:48.625Z,56.35
2023-12-20T19:49:15.615Z,55.08
2023-12-20T19:51:42.947Z,54.97
2023-12-20T19:54:14.258Z,54.90
2023-12-20T19:56:41.000Z,70.88
2023-12-20T19:59:07.776Z,56.13
2023-12-20T20:01:37.691Z,54.47
2023-12-20T20:04:05.565Z,53.92
2023-12-20T20:06:32.513Z,54.72
2023-12-20T20:08:59.464Z,54.40
2023-12-20T20:11:33.017Z,57.08
2023-12-20T20:14:04.489Z,55.00
2023-12-20T20:16:32.121Z,57.08
2023-12-20T20:18:59.012Z,58.90
2023-12-20T20:21:25.895Z,57.72
2023-12-20T20:23:52.753Z,58.28
2023-12-20T20:26:19.706Z,57.45
2023-12-20T20:28:50.541Z,58.80
2023-12-20T20:31:17.499Z,56.72
2023-12-20T20:33:45.950Z,52.88
2023-12-20T20:36:12.944Z,54.58
2023-12-20T20:38:42.342Z,55.58
2023-12-20T20:41:10.337Z,55.25
2023-12-20T20:43:37.455Z,52.45
2023-12-20T20:46:07.188Z,49.13
2023-12-20T20:48:51.462Z,48.38
2023-12-20T20:51:23.804Z,48.83
2023-12-20T20:54:00.965Z,47.22
2023-12-20T20:56:41.123Z,48.17
2023-12-20T20:59:08.888Z,50.72
2023-12-20T21:01:35.772Z,48.17
2023-12-20T21:04:02.954Z,46.92
2023-12-20T21:06:49.125Z,47.05
2023-12-20T21:09:16.471Z,48.92
2023-12-20T21:11:45.297Z,46.90
2023-12-20T21:14:14.127Z,46.67
2023-12-20T21:16:41.350Z,48.80
2023-12-20T21:19:11.974Z,45.75
2023-12-20T21:21:42.376Z,45.28
2023-12-20T21:24:18.785Z,44.10
2023-12-20T21:26:49.311Z,45.40
2023-12-20T21:29:16.244Z,46.90
2023-12-20T21:31:46.196Z,44.38
2023-12-20T21:34:18.004Z,50.55
2023-12-20T21:36:45.303Z,45.80
2023-12-20T21:39:14.587Z,46.55
2023-12-20T21:41:50.938Z,45.22
2023-12-20T21:44:17.814Z,45.08
2023-12-20T21:46:46.084Z,44.90
2023-12-20T21:49:19.614Z,44.33
2023-12-20T21:51:51.164Z,44.38
2023-12-20T21:54:21.542Z,46.78
2023-12-20T21:56:51.273Z,44.97
2023-12-20T21:59:28.661Z,44.10
2023-12-20T22:02:00.223Z,47.25
2023-12-20T22:04:28.123Z,47.28
2023-12-20T22:06:58.425Z,44.47
2023-12-20T22:09:27.658Z,45.15
2023-12-20T22:11:55.703Z,46.78
2023-12-20T22:14:23.570Z,48.40
2023-12-20T22:16:52.812Z,48.28
2023-12-20T22:19:23.909Z,48.58
2023-12-20T22:21:57.267Z,46.78
2023-12-20T22:24:34.098Z,47.83
2023-12-20T22:27:06.006Z,45.97
2023-12-20T22:29:40.950Z,44.25
2023-12-20T22:32:09.821Z,46.58
2023-12-20T22:34:37.508Z,46.45
2023-12-20T22:37:09.432Z,46.50
2023-12-20T22:39:40.227Z,43.95
2023-12-20T22:42:09.805Z,46.70
2023-12-20T22:44:39.994Z,45.88
2023-12-20T22:47:06.980Z,45.88
2023-12-20T22:49:40.358Z,46.05
2023-12-20T22:52:07.693Z,43.60
2023-12-20T22:54:34.460Z,47.10
2023-12-20T22:57:01.342Z,45.50
2023-12-20T22:59:31.195Z,46.13
2023-12-20T23:02:03.028Z,48.00
2023-12-20T23:04:29.945Z,47.80
2023-12-20T23:06:56.947Z,46.78
2023-12-20T23:09:32.358Z,45.22
2023-12-20T23:12:13.774Z,46.03
2023-12-20T23:14:55.732Z,48.13
2023-12-20T23:17:29.403Z,46.20
2023-12-20T23:19:56.637Z,46.95
2023-12-20T23:22:24.328Z,46.15
2023-12-20T23:25:02.373Z,46.13
2023-12-20T23:27:29.779Z,47.38
2023-12-20T23:29:57.229Z,47.42
2023-12-20T23:32:23.880Z,49.40
2023-12-20T23:35:04.965Z,48.95
2023-12-20T23:37:39.582Z,47.80
2023-12-20T23:40:07.119Z,46.72
2023-12-20T23:42:33.912Z,46.97
2023-12-20T23:45:03.509Z,47.92
2023-12-20T23:47:30.627Z,47.33
2023-12-20T23:50:00.625Z,48.53
2023-12-20T23:52:34.988Z,48.42
2023-12-20T23:55:08.836Z,50.38
2023-12-20T23:57:35.774Z,47.75
